createdAt,value
2023-12-16T00:00:22.136Z,34.43
2023-12-16T00:01:28.839Z,34.40
2023-12-16T00:02:35.536Z,34.38
2023-12-16T00:03:42.221Z,34.41
2023-12-16T00:04:48.895Z,34.38
2023-12-16T00:05:55.564Z,34.34
2023-12-16T00:07:02.253Z,34.32
2023-12-16T00:08:08.882Z,34.37
2023-12-16T00:09:15.497Z,34.38
2023-12-16T00:10:22.250Z,34.39
2023-12-16T00:11:29.253Z,34.39
2023-12-16T00:12:36.240Z,34.39
2023-12-16T00:13:43.162Z,34.35
2023-12-16T00:14:49.790Z,34.37
2023-12-16T00:15:56.439Z,34.34
2023-12-16T00:17:03.138Z,34.39
2023-12-16T00:18:09.814Z,34.31
2023-12-16T00:19:16.545Z,34.28
2023-12-16T00:20:23.607Z,34.21
2023-12-16T00:21:30.221Z,34.21
2023-12-16T00:22:36.837Z,34.17
2023-12-16T00:23:43.471Z,34.22
2023-12-16T00:24:50.116Z,34.18
2023-12-16T00:25:56.830Z,34.15
2023-12-16T00:27:03.441Z,34.17
2023-12-16T00:28:10.131Z,34.16
2023-12-16T00:29:17.226Z,34.16
2023-12-16T00:30:23.875Z,34.15
2023-12-16T00:31:30.511Z,34.13
2023-12-16T00:32:37.148Z,34.12
2023-12-16T00:33:43.817Z,34.11
2023-12-16T00:34:50.448Z,34.10
2023-12-16T00:35:57.085Z,34.11
2023-12-16T00:37:03.762Z,34.14
2023-12-16T00:38:10.380Z,34.08
2023-12-16T00:39:16.998Z,34.12
2023-12-16T00:40:23.835Z,34.15
2023-12-16T00:41:30.527Z,34.15
2023-12-16T00:42:37.138Z,34.08
2023-12-16T00:43:43.756Z,34.09
2023-12-16T00:44:50.390Z,34.09
2023-12-16T00:45:57.040Z,34.07
2023-12-16T00:47:03.668Z,34.09
2023-12-16T00:48:10.409Z,34.13
2023-12-16T00:49:17.157Z,34.16
2023-12-16T00:50:23.825Z,34.15
2023-12-16T00:51:30.458Z,34.11
2023-12-16T00:52:37.067Z,34.07
2023-12-16T00:53:43.681Z,34.02
2023-12-16T00:54:50.304Z,33.98
2023-12-16T00:55:56.921Z,33.98
2023-12-16T00:57:03.534Z,33.96
2023-12-16T00:58:10.234Z,33.98
2023-12-16T00:59:17.155Z,33.97
2023-12-16T01:00:23.790Z,33.93
2023-12-16T01:01:30.492Z,33.93
2023-12-16T01:02:37.134Z,33.88
2023-12-16T01:03:43.803Z,33.87
2023-12-16T01:04:50.426Z,33.86
2023-12-16T01:05:57.058Z,33.88
2023-12-16T01:07:03.841Z,33.83
2023-12-16T01:08:10.502Z,33.87
2023-12-16T01:09:17.137Z,33.82
2023-12-16T01:10:23.830Z,33.78
2023-12-16T01:11:30.435Z,33.85
2023-12-16T01:12:37.059Z,33.81
2023-12-16T01:13:43.682Z,33.85
2023-12-16T01:14:50.299Z,33.84
2023-12-16T01:15:56.933Z,33.87
2023-12-16T01:17:03.519Z,33.87
2023-12-16T01:18:10.216Z,33.87
2023-12-16T01:19:17.179Z,33.78
2023-12-16T01:20:23.769Z,33.79
2023-12-16T01:21:30.384Z,33.77
2023-12-16T01:22:37.012Z,33.79
2023-12-16T01:23:43.668Z,33.72
2023-12-16T01:24:50.362Z,33.76
2023-12-16T01:25:56.978Z,33.74
2023-12-16T01:27:03.581Z,33.81
2023-12-16T01:28:10.219Z,33.81
2023-12-16T01:29:16.833Z,33.77
2023-12-16T01:30:23.442Z,33.80
2023-12-16T01:31:30.126Z,33.82
2023-12-16T01:32:36.722Z,33.88
2023-12-16T01:33:43.373Z,33.88
2023-12-16T01:34:49.993Z,33.90
2023-12-16T01:35:56.622Z,33.96
2023-12-16T01:37:03.292Z,33.99
2023-12-16T01:38:09.878Z,34.02
2023-12-16T01:39:16.521Z,34.04
2023-12-16T01:40:23.209Z,34.09
2023-12-16T01:41:29.848Z,34.07
2023-12-16T01:42:36.478Z,34.11
2023-12-16T01:43:43.083Z,34.17
2023-12-16T01:44:49.737Z,34.14
2023-12-16T01:45:56.402Z,34.15
2023-12-16T01:47:03.098Z,34.19
2023-12-16T01:48:09.847Z,34.16
2023-12-16T01:49:16.574Z,34.18
2023-12-16T01:50:23.268Z,34.11
2023-12-16T01:51:29.863Z,34.17
2023-12-16T01:52:36.500Z,34.16
2023-12-16T01:53:43.124Z,34.08
2023-12-16T01:54:49.769Z,34.10
2023-12-16T01:55:56.372Z,34.11
2023-12-16T01:57:02.982Z,34.16
2023-12-16T01:58:09.639Z,34.09
2023-12-16T01:59:16.241Z,34.07
2023-12-16T02:00:22.870Z,34.00
2023-12-16T02:01:29.574Z,34.00
2023-12-16T02:02:36.216Z,33.98
2023-12-16T02:03:42.960Z,33.98
2023-12-16T02:04:49.660Z,33.94
2023-12-16T02:05:56.293Z,33.89
2023-12-16T02:07:02.971Z,33.83
2023-12-16T02:08:09.630Z,33.80
2023-12-16T02:09:16.265Z,33.78
2023-12-16T02:10:22.906Z,33.80
2023-12-16T02:11:29.526Z,33.73
2023-12-16T02:12:36.127Z,33.75
2023-12-16T02:13:42.751Z,33.78
2023-12-16T02:14:49.388Z,33.75
2023-12-16T02:15:56.018Z,33.70
2023-12-16T02:17:02.660Z,33.69
2023-12-16T02:18:09.336Z,33.68
2023-12-16T02:19:16.074Z,33.69
2023-12-16T02:20:22.723Z,33.68
2023-12-16T02:21:29.338Z,33.60
2023-12-16T02:22:35.967Z,33.60
2023-12-16T02:23:42.615Z,33.58
2023-12-16T02:24:49.234Z,33.53
2023-12-16T02:25:55.835Z,33.55
2023-12-16T02:27:02.455Z,33.49
2023-12-16T02:28:09.119Z,33.48
2023-12-16T02:29:18.317Z,33.48
2023-12-16T02:30:25.421Z,33.52
2023-12-16T02:31:32.048Z,33.55
2023-12-16T02:32:38.715Z,33.49
2023-12-16T02:33:45.463Z,33.48
2023-12-16T02:34:52.080Z,33.47
2023-12-16T02:35:58.692Z,33.45
2023-12-16T02:37:05.374Z,33.43
2023-12-16T02:38:11.958Z,33.40
2023-12-16T02:39:18.670Z,33.38
2023-12-16T02:40:25.337Z,33.43
2023-12-16T02:41:31.933Z,33.43
2023-12-16T02:42:38.560Z,33.38
2023-12-16T02:43:45.156Z,33.39
2023-12-16T02:44:51.790Z,33.38
2023-12-16T02:45:58.429Z,33.36
2023-12-16T02:47:05.046Z,33.27
2023-12-16T02:48:11.809Z,33.27
2023-12-16T02:49:18.505Z,33.26
2023-12-16T02:50:25.196Z,33.20
2023-12-16T02:51:31.792Z,33.21
2023-12-16T02:52:38.426Z,33.18
2023-12-16T02:53:45.047Z,33.19
2023-12-16T02:54:51.712Z,33.21
2023-12-16T02:55:58.338Z,33.23
2023-12-16T02:57:04.927Z,33.24
2023-12-16T02:58:11.564Z,33.24
2023-12-16T02:59:18.203Z,33.23
2023-12-16T03:00:24.829Z,33.25
2023-12-16T03:01:31.533Z,33.25
2023-12-16T03:02:38.220Z,33.20
2023-12-16T03:03:44.868Z,33.21
2023-12-16T03:04:51.500Z,33.18
2023-12-16T03:05:58.095Z,33.12
2023-12-16T03:07:04.772Z,33.18
2023-12-16T03:08:11.364Z,33.17
2023-12-16T03:09:17.984Z,33.18
2023-12-16T03:10:24.720Z,33.21
2023-12-16T03:11:31.301Z,33.20
2023-12-16T03:12:37.935Z,33.17
2023-12-16T03:13:44.566Z,33.15
2023-12-16T03:14:51.169Z,33.18
2023-12-16T03:15:57.841Z,33.17
2023-12-16T03:17:04.455Z,33.18
2023-12-16T03:18:11.097Z,33.16
2023-12-16T03:19:17.774Z,33.18
2023-12-16T03:20:24.433Z,33.16
2023-12-16T03:21:31.049Z,33.17
2023-12-16T03:22:37.686Z,33.18
2023-12-16T03:23:44.308Z,33.18
2023-12-16T03:24:50.958Z,33.18
2023-12-16T03:25:57.560Z,33.18
2023-12-16T03:27:04.182Z,33.18
2023-12-16T03:28:10.808Z,33.15
2023-12-16T03:29:17.426Z,33.16
2023-12-16T03:30:24.108Z,33.18
2023-12-16T03:31:30.804Z,33.16
2023-12-16T03:32:37.537Z,33.16
2023-12-16T03:33:44.392Z,33.17
2023-12-16T03:34:51.166Z,33.16
2023-12-16T03:35:57.784Z,33.16
2023-12-16T03:37:04.451Z,33.17
2023-12-16T03:38:11.030Z,33.17
2023-12-16T03:39:17.674Z,33.10
2023-12-16T03:40:24.448Z,33.17
2023-12-16T03:41:31.060Z,33.14
2023-12-16T03:42:37.678Z,33.10
2023-12-16T03:43:44.284Z,33.08
2023-12-16T03:44:50.911Z,33.04
2023-12-16T03:45:57.542Z,33.03
2023-12-16T03:47:04.141Z,33.06
2023-12-16T03:48:10.852Z,33.02
2023-12-16T03:49:17.508Z,33.00
2023-12-16T03:50:24.106Z,33.02
2023-12-16T03:51:30.745Z,33.02
2023-12-16T03:52:37.337Z,33.06
2023-12-16T03:53:44.035Z,33.04
2023-12-16T03:54:50.660Z,33.05
2023-12-16T03:55:57.288Z,33.05
2023-12-16T03:57:03.916Z,33.05
2023-12-16T03:58:10.578Z,33.03
2023-12-16T03:59:17.179Z,32.97
2023-12-16T04:00:23.783Z,32.99
2023-12-16T04:01:30.468Z,32.96
2023-12-16T04:02:37.152Z,32.98
2023-12-16T04:03:43.755Z,32.98
2023-12-16T04:04:50.364Z,32.97
2023-12-16T04:05:57.003Z,32.90
2023-12-16T04:07:03.641Z,32.92
2023-12-16T04:08:10.259Z,32.90
2023-12-16T04:09:16.877Z,32.90
2023-12-16T04:10:23.518Z,32.93
2023-12-16T04:11:30.106Z,32.92
2023-12-16T04:12:36.722Z,32.91
2023-12-16T04:13:43.344Z,32.94
2023-12-16T04:14:49.956Z,32.97
2023-12-16T04:15:56.610Z,32.90
2023-12-16T04:17:03.193Z,32.97
2023-12-16T04:18:10.036Z,32.94
2023-12-16T04:19:16.775Z,32.98
2023-12-16T04:20:23.403Z,32.97
2023-12-16T04:21:30.036Z,32.98
2023-12-16T04:22:36.642Z,32.98
2023-12-16T04:23:43.251Z,32.91
2023-12-16T04:24:49.937Z,32.90
2023-12-16T04:25:56.562Z,32.90
2023-12-16T04:27:03.174Z,32.91
2023-12-16T04:28:09.828Z,32.90
2023-12-16T04:29:16.413Z,32.90
2023-12-16T04:30:23.043Z,32.85
2023-12-16T04:31:29.694Z,32.82
2023-12-16T04:32:36.314Z,32.78
2023-12-16T04:33:42.963Z,32.79
2023-12-16T04:34:49.814Z,32.82
2023-12-16T04:35:56.444Z,32.82
2023-12-16T04:37:03.150Z,32.81
2023-12-16T04:38:09.783Z,32.87
2023-12-16T04:39:16.393Z,32.87
2023-12-16T04:40:23.042Z,32.80
2023-12-16T04:41:29.656Z,32.80
2023-12-16T04:42:36.259Z,32.78
2023-12-16T04:43:42.884Z,32.78
2023-12-16T04:44:49.497Z,32.78
2023-12-16T04:45:56.123Z,32.70
2023-12-16T04:47:02.745Z,32.71
2023-12-16T04:48:09.448Z,32.70
2023-12-16T04:49:16.235Z,32.69
2023-12-16T04:50:22.934Z,32.70
2023-12-16T04:51:29.531Z,32.78
2023-12-16T04:52:36.165Z,32.78
2023-12-16T04:53:42.778Z,32.78
2023-12-16T04:54:49.420Z,32.79
2023-12-16T04:55:56.035Z,32.78
2023-12-16T04:57:02.639Z,32.74
2023-12-16T04:58:09.314Z,32.70
2023-12-16T04:59:15.918Z,32.66
2023-12-16T05:00:22.545Z,32.68
2023-12-16T05:01:29.307Z,32.68
2023-12-16T05:02:35.943Z,32.68
2023-12-16T05:03:42.591Z,32.69
2023-12-16T05:04:49.329Z,32.67
2023-12-16T05:05:55.952Z,32.66
2023-12-16T05:07:02.603Z,32.65
2023-12-16T05:08:09.276Z,32.64
2023-12-16T05:09:15.873Z,32.63
2023-12-16T05:10:22.514Z,32.60
2023-12-16T05:11:29.148Z,32.60
2023-12-16T05:12:36.606Z,32.57
2023-12-16T05:13:43.261Z,32.58
2023-12-16T05:14:49.893Z,32.61
2023-12-16T05:15:56.524Z,32.59
2023-12-16T05:17:03.132Z,32.58
2023-12-16T05:18:09.907Z,32.61
2023-12-16T05:19:16.650Z,32.63
2023-12-16T05:20:23.266Z,32.63
2023-12-16T05:21:29.877Z,32.59
2023-12-16T05:22:36.495Z,32.59
2023-12-16T05:23:43.110Z,32.59
2023-12-16T05:24:49.758Z,32.58
2023-12-16T05:25:56.350Z,32.56
2023-12-16T05:27:02.978Z,32.56
2023-12-16T05:28:09.706Z,32.58
2023-12-16T05:29:16.338Z,32.55
2023-12-16T05:30:23.075Z,32.50
2023-12-16T05:31:29.721Z,32.48
2023-12-16T05:32:36.413Z,32.44
2023-12-16T05:33:43.067Z,32.41
2023-12-16T05:34:49.697Z,32.46
2023-12-16T05:35:56.431Z,32.46
2023-12-16T05:37:03.107Z,32.42
2023-12-16T05:38:09.710Z,32.45
2023-12-16T05:39:16.327Z,32.48
2023-12-16T05:40:23.003Z,32.48
2023-12-16T05:41:29.618Z,32.48
2023-12-16T05:42:36.330Z,32.52
2023-12-16T05:43:42.976Z,32.48
2023-12-16T05:44:49.574Z,32.48
2023-12-16T05:45:56.211Z,32.48
2023-12-16T05:47:02.816Z,32.42
2023-12-16T05:48:09.561Z,32.43
2023-12-16T05:49:16.227Z,32.44
2023-12-16T05:50:22.894Z,32.45
2023-12-16T05:51:29.518Z,32.41
2023-12-16T05:52:36.208Z,32.43
2023-12-16T05:53:42.792Z,32.46
2023-12-16T05:54:49.425Z,32.41
2023-12-16T05:55:56.040Z,32.39
2023-12-16T05:57:02.663Z,32.43
2023-12-16T05:58:09.318Z,32.41
2023-12-16T05:59:15.910Z,32.41
2023-12-16T06:00:22.520Z,32.38
2023-12-16T06:01:29.246Z,32.40
2023-12-16T06:02:35.962Z,32.42
2023-12-16T06:03:42.564Z,32.42
2023-12-16T06:04:49.206Z,32.46
2023-12-16T06:05:55.920Z,32.42
2023-12-16T06:07:02.593Z,32.44
2023-12-16T06:08:09.178Z,32.43
2023-12-16T06:09:15.789Z,32.40
2023-12-16T06:10:22.447Z,32.38
2023-12-16T06:11:29.040Z,32.38
2023-12-16T06:12:35.676Z,32.38
2023-12-16T06:13:42.346Z,32.38
2023-12-16T06:14:48.979Z,32.38
2023-12-16T06:16:07.642Z,32.37
2023-12-16T06:17:07.172Z,32.38
2023-12-16T06:18:14.018Z,32.32
2023-12-16T06:19:22.115Z,32.34
2023-12-16T06:20:29.819Z,32.32
2023-12-16T06:21:36.429Z,32.27
2023-12-16T06:22:43.051Z,32.28
2023-12-16T06:23:49.674Z,32.25
2023-12-16T06:24:56.298Z,32.25
2023-12-16T06:26:02.901Z,32.28
2023-12-16T06:27:09.527Z,32.23
2023-12-16T06:28:16.175Z,32.25
2023-12-16T06:29:22.774Z,32.25
2023-12-16T06:30:29.410Z,32.28
2023-12-16T06:31:36.039Z,32.28
2023-12-16T06:32:42.690Z,32.28
2023-12-16T06:33:49.587Z,32.28
2023-12-16T06:34:56.299Z,32.26
2023-12-16T06:36:02.900Z,32.27
2023-12-16T06:37:09.542Z,32.24
2023-12-16T06:38:16.165Z,32.28
2023-12-16T06:39:22.789Z,32.27
2023-12-16T06:40:29.452Z,32.22
2023-12-16T06:41:36.038Z,32.26
2023-12-16T06:42:42.660Z,32.24
2023-12-16T06:43:49.277Z,32.21
2023-12-16T06:44:55.911Z,32.25
2023-12-16T06:46:02.558Z,32.24
2023-12-16T06:47:09.136Z,32.20
2023-12-16T06:48:15.908Z,32.20
2023-12-16T06:49:22.577Z,32.28
2023-12-16T06:50:29.256Z,32.28
2023-12-16T06:51:35.886Z,32.30
2023-12-16T06:52:42.501Z,32.29
2023-12-16T06:53:49.124Z,32.29
2023-12-16T06:54:55.756Z,32.29
2023-12-16T06:56:02.361Z,32.22
2023-12-16T06:57:09.009Z,32.27
2023-12-16T06:58:15.648Z,32.21
2023-12-16T06:59:22.278Z,32.18
2023-12-16T07:00:28.971Z,32.18
2023-12-16T07:01:35.652Z,32.18
2023-12-16T07:02:42.343Z,32.16
2023-12-16T07:03:49.058Z,32.13
2023-12-16T07:04:55.707Z,32.10
2023-12-16T07:06:02.478Z,32.15
2023-12-16T07:07:09.241Z,32.10
2023-12-16T07:08:15.860Z,32.08
2023-12-16T07:09:22.454Z,32.06
2023-12-16T07:10:29.122Z,32.07
2023-12-16T07:11:35.717Z,32.02
2023-12-16T07:12:42.356Z,31.98
2023-12-16T07:13:48.956Z,32.00
2023-12-16T07:14:55.571Z,32.03
2023-12-16T07:16:02.233Z,32.01
2023-12-16T07:17:08.832Z,32.00
2023-12-16T07:18:15.488Z,31.99
2023-12-16T07:19:22.242Z,31.99
2023-12-16T07:20:28.850Z,31.98
2023-12-16T07:21:35.477Z,31.97
2023-12-16T07:22:42.084Z,31.97
2023-12-16T07:23:48.714Z,31.91
2023-12-16T07:24:55.373Z,31.89
2023-12-16T07:26:01.957Z,31.89
2023-12-16T07:27:08.658Z,31.88
2023-12-16T07:28:15.345Z,31.88
2023-12-16T07:29:22.083Z,31.85
2023-12-16T07:30:28.725Z,31.85
2023-12-16T07:31:35.367Z,31.80
2023-12-16T07:32:42.194Z,31.79
2023-12-16T07:33:49.057Z,31.78
2023-12-16T07:34:55.771Z,31.79
2023-12-16T07:36:02.369Z,31.84
2023-12-16T07:37:09.017Z,31.83
2023-12-16T07:38:15.618Z,31.88
2023-12-16T07:39:22.280Z,31.87
2023-12-16T07:40:28.906Z,31.84
2023-12-16T07:41:35.567Z,31.86
2023-12-16T07:42:42.205Z,31.81
2023-12-16T07:43:48.824Z,31.80
2023-12-16T07:44:55.421Z,31.83
2023-12-16T07:46:02.113Z,31.80
2023-12-16T07:47:08.709Z,31.85
2023-12-16T07:48:15.560Z,31.88
2023-12-16T07:49:22.255Z,31.88
2023-12-16T07:50:28.890Z,31.88
2023-12-16T07:51:35.513Z,31.83
2023-12-16T07:52:42.139Z,31.82
2023-12-16T07:53:48.825Z,31.78
2023-12-16T07:54:55.500Z,31.77
2023-12-16T07:56:02.079Z,31.80
2023-12-16T07:57:08.703Z,31.73
2023-12-16T07:58:15.446Z,31.77
2023-12-16T07:59:22.065Z,31.77
2023-12-16T08:00:28.808Z,31.78
2023-12-16T08:01:35.573Z,31.78
2023-12-16T08:02:42.200Z,31.78
2023-12-16T08:03:49.036Z,31.71
2023-12-16T08:04:55.814Z,31.69
2023-12-16T08:06:02.460Z,31.69
2023-12-16T08:07:09.088Z,31.68
2023-12-16T08:08:15.702Z,31.69
2023-12-16T08:09:22.322Z,31.68
2023-12-16T08:10:29.006Z,31.77
2023-12-16T08:11:35.654Z,31.74
2023-12-16T08:12:42.264Z,31.69
2023-12-16T08:13:48.901Z,31.68
2023-12-16T08:14:55.523Z,31.66
2023-12-16T08:16:02.197Z,31.68
2023-12-16T08:17:08.869Z,31.68
2023-12-16T08:18:17.190Z,31.61
2023-12-16T08:19:26.207Z,31.63
2023-12-16T08:20:32.866Z,31.58
2023-12-16T08:21:39.470Z,31.62
2023-12-16T08:22:46.091Z,31.58
2023-12-16T08:23:52.734Z,31.56
2023-12-16T08:24:59.356Z,31.56
2023-12-16T08:26:05.948Z,31.51
2023-12-16T08:27:12.549Z,31.51
2023-12-16T08:28:19.290Z,31.55
2023-12-16T08:29:25.907Z,31.49
2023-12-16T08:30:32.588Z,31.55
2023-12-16T08:31:39.216Z,31.55
2023-12-16T08:32:45.879Z,31.58
2023-12-16T08:33:52.557Z,31.58
2023-12-16T08:34:59.273Z,31.58
2023-12-16T08:36:05.943Z,31.58
2023-12-16T08:37:12.575Z,31.56
2023-12-16T08:38:19.171Z,31.58
2023-12-16T08:39:25.802Z,31.56
2023-12-16T08:40:32.444Z,31.53
2023-12-16T08:41:39.119Z,31.51
2023-12-16T08:42:45.776Z,31.47
2023-12-16T08:43:52.359Z,31.51
2023-12-16T08:44:59.027Z,31.55
2023-12-16T08:46:05.645Z,31.56
2023-12-16T08:47:12.267Z,31.52
2023-12-16T08:48:18.953Z,31.49
2023-12-16T08:49:25.615Z,31.49
2023-12-16T08:50:32.208Z,31.52
2023-12-16T08:51:38.814Z,31.49
2023-12-16T08:52:45.526Z,31.48
2023-12-16T08:53:52.125Z,31.47
2023-12-16T08:54:58.869Z,31.47
2023-12-16T08:56:05.516Z,31.48
2023-12-16T08:57:12.132Z,31.43
2023-12-16T08:58:18.780Z,31.42
2023-12-16T08:59:25.363Z,31.41
2023-12-16T09:00:32.081Z,31.38
2023-12-16T09:01:38.745Z,31.38
2023-12-16T09:02:45.352Z,31.39
2023-12-16T09:03:52.146Z,31.38
2023-12-16T09:04:58.807Z,31.38
2023-12-16T09:06:05.557Z,31.38
2023-12-16T09:07:12.152Z,31.34
2023-12-16T09:08:18.751Z,31.37
2023-12-16T09:09:25.378Z,31.31
2023-12-16T09:10:32.023Z,31.33
2023-12-16T09:11:38.624Z,31.37
2023-12-16T09:12:45.256Z,31.36
2023-12-16T09:13:51.869Z,31.37
2023-12-16T09:14:58.500Z,31.32
2023-12-16T09:16:05.144Z,31.36
2023-12-16T09:17:11.774Z,31.34
2023-12-16T09:18:18.491Z,31.30
2023-12-16T09:19:25.287Z,31.31
2023-12-16T09:20:31.957Z,31.29
2023-12-16T09:21:38.564Z,31.29
2023-12-16T09:22:45.199Z,31.28
2023-12-16T09:23:51.826Z,31.28
2023-12-16T09:24:58.454Z,31.27
2023-12-16T09:26:05.096Z,31.27
2023-12-16T09:27:11.696Z,31.27
2023-12-16T09:28:18.419Z,31.25
2023-12-16T09:29:27.723Z,31.21
2023-12-16T09:30:35.244Z,31.18
2023-12-16T09:31:41.872Z,31.18
2023-12-16T09:32:48.516Z,31.18
2023-12-16T09:33:55.418Z,31.16
2023-12-16T09:35:02.100Z,31.18
2023-12-16T09:36:10.827Z,31.16
2023-12-16T09:37:18.784Z,31.16
2023-12-16T09:38:25.429Z,31.15
2023-12-16T09:39:32.087Z,31.11
2023-12-16T09:40:38.725Z,31.09
2023-12-16T09:41:45.400Z,31.15
2023-12-16T09:42:52.068Z,31.17
2023-12-16T09:43:58.680Z,31.14
2023-12-16T09:45:05.307Z,31.09
2023-12-16T09:46:11.960Z,31.12
2023-12-16T09:47:18.558Z,31.09
2023-12-16T09:48:25.267Z,31.08
2023-12-16T09:49:31.997Z,31.08
2023-12-16T09:50:38.743Z,31.08
2023-12-16T09:51:45.329Z,31.07
2023-12-16T09:52:51.924Z,31.03
2023-12-16T09:53:58.549Z,31.08
2023-12-16T09:55:05.205Z,31.08
2023-12-16T09:56:11.812Z,31.08
2023-12-16T09:57:18.417Z,31.02
2023-12-16T09:58:25.083Z,31.02
2023-12-16T09:59:31.729Z,31.01
2023-12-16T10:00:38.356Z,31.03
2023-12-16T10:01:45.048Z,30.98
2023-12-16T10:02:51.784Z,30.98
2023-12-16T10:03:58.434Z,31.01
2023-12-16T10:05:05.119Z,30.98
2023-12-16T10:06:11.732Z,30.98
2023-12-16T10:07:18.840Z,30.97
2023-12-16T10:08:25.465Z,30.94
2023-12-16T10:09:32.068Z,30.98
2023-12-16T10:10:38.737Z,30.96
2023-12-16T10:11:45.320Z,30.91
2023-12-16T10:12:52.000Z,30.98
2023-12-16T10:13:58.616Z,30.97
2023-12-16T10:15:05.218Z,30.98
2023-12-16T10:16:11.921Z,30.97
2023-12-16T10:17:18.553Z,30.97
2023-12-16T10:18:25.294Z,30.97
2023-12-16T10:19:32.001Z,30.96
2023-12-16T10:20:38.636Z,31.00
2023-12-16T10:21:45.272Z,31.00
2023-12-16T10:22:51.880Z,31.06
2023-12-16T10:23:58.506Z,30.98
2023-12-16T10:25:05.139Z,30.98
2023-12-16T10:26:11.739Z,31.00
2023-12-16T10:27:18.360Z,30.96
2023-12-16T10:28:24.987Z,30.98
2023-12-16T10:29:31.595Z,30.96
2023-12-16T10:30:38.236Z,30.93
2023-12-16T10:31:44.905Z,30.92
2023-12-16T10:32:51.634Z,30.89
2023-12-16T10:33:58.242Z,30.88
2023-12-16T10:35:04.886Z,30.86
2023-12-16T10:36:11.511Z,30.87
2023-12-16T10:37:18.203Z,30.88
2023-12-16T10:38:24.797Z,30.88
2023-12-16T10:39:31.406Z,30.88
2023-12-16T10:40:38.207Z,30.88
2023-12-16T10:41:44.844Z,30.88
2023-12-16T10:42:51.497Z,30.89
2023-12-16T10:43:58.205Z,30.89
2023-12-16T10:45:04.794Z,30.88
2023-12-16T10:46:11.490Z,30.88
2023-12-16T10:47:18.070Z,30.88
2023-12-16T10:48:24.787Z,30.88
2023-12-16T10:49:31.544Z,30.88
2023-12-16T10:50:38.319Z,30.88
2023-12-16T10:51:46.218Z,30.88
2023-12-16T10:52:52.826Z,30.89
2023-12-16T10:53:59.453Z,30.88
2023-12-16T10:55:06.174Z,30.88
2023-12-16T10:56:12.853Z,30.88
2023-12-16T10:57:19.520Z,30.88
2023-12-16T10:58:26.166Z,30.88
2023-12-16T10:59:32.781Z,30.87
2023-12-16T11:00:39.450Z,30.87
2023-12-16T11:01:46.180Z,30.87
2023-12-16T11:02:52.897Z,30.82
2023-12-16T11:03:59.533Z,30.80
2023-12-16T11:05:06.166Z,30.79
2023-12-16T11:06:13.169Z,30.77
2023-12-16T11:07:19.875Z,30.77
2023-12-16T11:08:28.276Z,30.77
2023-12-16T11:09:35.002Z,30.77
2023-12-16T11:10:41.691Z,30.75
2023-12-16T11:11:48.336Z,30.76
2023-12-16T11:12:54.959Z,30.75
2023-12-16T11:14:01.664Z,30.77
2023-12-16T11:15:08.338Z,30.78
2023-12-16T11:16:15.031Z,30.84
2023-12-16T11:17:21.732Z,30.86
2023-12-16T11:18:28.397Z,30.85
2023-12-16T11:19:35.048Z,30.83
2023-12-16T11:20:41.676Z,30.80
2023-12-16T11:21:48.299Z,30.80
2023-12-16T11:22:54.909Z,30.78
2023-12-16T11:24:01.584Z,30.78
2023-12-16T11:25:08.227Z,30.77
2023-12-16T11:26:14.932Z,30.75
2023-12-16T11:27:21.612Z,30.74
2023-12-16T11:28:28.250Z,30.77
2023-12-16T11:29:34.847Z,30.77
2023-12-16T11:30:41.480Z,30.78
2023-12-16T11:31:48.174Z,30.76
2023-12-16T11:32:54.998Z,30.75
2023-12-16T11:34:01.803Z,30.73
2023-12-16T11:35:08.458Z,30.74
2023-12-16T11:36:15.080Z,30.72
2023-12-16T11:37:21.704Z,30.75
2023-12-16T11:38:28.301Z,30.76
2023-12-16T11:39:34.917Z,30.77
2023-12-16T11:40:41.533Z,30.74
2023-12-16T11:41:48.127Z,30.62
2023-12-16T11:42:54.780Z,30.67
2023-12-16T11:44:01.426Z,30.71
2023-12-16T11:45:08.053Z,30.36
2023-12-16T11:46:14.672Z,26.63
2023-12-16T11:47:21.347Z,26.46
2023-12-16T11:48:27.995Z,26.91
2023-12-16T11:49:34.657Z,29.01
2023-12-16T11:50:41.266Z,30.36
2023-12-16T11:51:47.906Z,31.12
2023-12-16T11:52:54.526Z,31.73
2023-12-16T11:54:01.147Z,32.12
2023-12-16T11:55:07.805Z,32.31
2023-12-16T11:56:14.458Z,32.33
2023-12-16T11:57:23.211Z,32.26
2023-12-16T11:58:30.686Z,32.19
2023-12-16T11:59:37.277Z,32.13
2023-12-16T12:00:44.950Z,32.05
2023-12-16T12:01:51.644Z,31.97
2023-12-16T12:02:58.215Z,31.96
2023-12-16T12:04:05.091Z,31.88
2023-12-16T12:05:11.914Z,31.84
2023-12-16T12:06:18.660Z,31.78
2023-12-16T12:07:25.301Z,31.74
2023-12-16T12:08:31.892Z,31.68
2023-12-16T12:09:38.515Z,31.62
2023-12-16T12:10:45.169Z,31.56
2023-12-16T12:11:51.780Z,31.56
2023-12-16T12:12:58.426Z,31.53
2023-12-16T12:14:05.006Z,31.52
2023-12-16T12:15:11.635Z,31.52
2023-12-16T12:16:18.292Z,31.58
2023-12-16T12:17:24.970Z,31.56
2023-12-16T12:18:31.676Z,31.55
2023-12-16T12:19:38.316Z,31.52
2023-12-16T12:20:45.016Z,31.50
2023-12-16T12:21:51.644Z,31.47
2023-12-16T12:22:58.340Z,31.51
2023-12-16T12:24:05.004Z,31.47
2023-12-16T12:25:11.708Z,31.46
2023-12-16T12:26:18.362Z,31.40
2023-12-16T12:27:24.996Z,31.40
2023-12-16T12:28:31.613Z,31.41
2023-12-16T12:29:38.285Z,31.48
2023-12-16T12:30:44.927Z,31.47
2023-12-16T12:31:51.522Z,31.38
2023-12-16T12:32:58.209Z,31.39
2023-12-16T12:34:04.971Z,31.43
2023-12-16T12:35:11.714Z,31.39
2023-12-16T12:36:18.380Z,31.40
2023-12-16T12:37:25.053Z,31.38
2023-12-16T12:38:31.694Z,31.38
2023-12-16T12:39:38.306Z,31.38
2023-12-16T12:40:44.918Z,31.41
2023-12-16T12:41:51.576Z,31.37
2023-12-16T12:42:58.212Z,31.37
2023-12-16T12:44:04.809Z,31.39
2023-12-16T12:45:11.471Z,31.37
2023-12-16T12:46:18.257Z,31.38
2023-12-16T12:47:24.897Z,31.46
2023-12-16T12:48:31.731Z,31.46
2023-12-16T12:49:38.437Z,31.41
2023-12-16T12:50:45.119Z,31.46
2023-12-16T12:51:51.752Z,31.46
2023-12-16T12:53:19.799Z,31.53
2023-12-16T12:54:09.896Z,31.58
2023-12-16T12:55:16.551Z,31.57
2023-12-16T12:56:23.159Z,31.57
2023-12-16T12:57:29.777Z,31.57
2023-12-16T12:58:36.425Z,31.51
2023-12-16T12:59:59.767Z,31.51
2023-12-16T13:00:54.671Z,31.49
2023-12-16T13:02:01.296Z,31.57
2023-12-16T13:03:08.020Z,31.56
2023-12-16T13:04:14.774Z,31.57
2023-12-16T13:05:21.423Z,31.56
2023-12-16T13:06:28.090Z,31.54
2023-12-16T13:07:34.679Z,31.46
2023-12-16T13:08:41.317Z,31.45
2023-12-16T13:09:47.947Z,31.46
2023-12-16T13:10:54.562Z,31.46
2023-12-16T13:12:01.223Z,31.37
2023-12-16T13:13:07.862Z,31.38
2023-12-16T13:14:17.926Z,31.37
2023-12-16T13:15:26.056Z,31.37
2023-12-16T13:16:37.611Z,31.37
2023-12-16T13:17:44.534Z,31.37
2023-12-16T13:18:51.514Z,31.37
2023-12-16T13:19:58.234Z,31.37
2023-12-16T13:21:04.940Z,31.35
2023-12-16T13:22:11.544Z,31.37
2023-12-16T13:23:18.194Z,31.36
2023-12-16T13:24:24.838Z,31.37
2023-12-16T13:25:31.436Z,31.35
2023-12-16T13:26:38.099Z,31.32
2023-12-16T13:27:44.680Z,31.29
2023-12-16T13:28:51.496Z,31.28
2023-12-16T13:29:58.155Z,31.26
2023-12-16T13:31:06.650Z,31.27
2023-12-16T13:32:14.857Z,31.27
2023-12-16T13:33:22.218Z,31.28
2023-12-16T13:34:29.200Z,31.26
2023-12-16T13:35:35.851Z,31.21
2023-12-16T13:36:50.254Z,31.26
2023-12-16T13:37:53.999Z,31.23
2023-12-16T13:39:00.681Z,31.26
2023-12-16T13:40:07.322Z,31.22
2023-12-16T13:41:13.971Z,31.21
2023-12-16T13:42:20.814Z,31.26
2023-12-16T13:43:27.437Z,31.27
2023-12-16T13:44:34.066Z,31.23
2023-12-16T13:45:40.700Z,31.19
2023-12-16T13:46:47.307Z,31.19
2023-12-16T13:47:53.982Z,31.19
2023-12-16T13:49:03.187Z,31.18
2023-12-16T13:50:10.789Z,31.18
2023-12-16T13:51:17.423Z,31.18
2023-12-16T13:52:24.013Z,31.16
2023-12-16T13:53:30.673Z,31.11
2023-12-16T13:54:37.286Z,31.08
2023-12-16T13:55:43.910Z,31.07
2023-12-16T13:56:50.592Z,31.04
2023-12-16T13:57:57.260Z,31.03
2023-12-16T13:59:03.885Z,31.01
2023-12-16T14:00:10.536Z,30.98
2023-12-16T14:01:18.439Z,30.98
2023-12-16T14:02:25.769Z,30.98
2023-12-16T14:03:32.454Z,30.98
2023-12-16T14:04:39.160Z,30.98
2023-12-16T14:05:45.858Z,30.98
2023-12-16T14:06:52.501Z,30.98
2023-12-16T14:07:59.123Z,30.98
2023-12-16T14:09:05.762Z,30.98
2023-12-16T14:10:12.368Z,30.98
2023-12-16T14:11:18.973Z,30.98
2023-12-16T14:12:25.617Z,30.98
2023-12-16T14:13:32.239Z,30.98
2023-12-16T14:14:38.881Z,30.98
2023-12-16T14:15:45.493Z,30.94
2023-12-16T14:16:52.110Z,30.92
2023-12-16T14:17:58.801Z,30.92
2023-12-16T14:19:05.516Z,30.88